createdAt,value
2018-03-04T00:00:39.059Z,3.19
2018-03-04T00:01:39.025Z,3.14
2018-03-04T00:03:38.090Z,3.27
2018-03-04T00:04:34.393Z,3.19
2018-03-04T00:06:30.854Z,3.19
2018-03-04T00:07:30.340Z,3.14
2018-03-04T00:09:26.788Z,3.29
2018-03-04T00:10:26.275Z,3.24
2018-03-04T00:12:22.714Z,3.27
2018-03-04T00:13:22.189Z,3.24
2018-03-04T00:15:18.127Z,3.26
2018-03-04T00:16:18.613Z,3.30
2018-03-04T00:18:14.548Z,3.30
2018-03-04T00:19:14.023Z,3.29
2018-03-04T00:21:09.952Z,3.24
2018-03-04T00:22:09.916Z,3.29
2018-03-04T00:24:05.836Z,3.20
2018-03-04T00:25:05.825Z,3.32
2018-03-04T00:27:01.776Z,3.27
2018-03-04T00:28:01.762Z,3.32
2018-03-04T00:29:57.708Z,3.27
2018-03-04T00:30:57.667Z,3.23
2018-03-04T00:32:55.109Z,3.17
2018-03-04T00:33:54.114Z,3.21
2018-03-04T00:35:50.025Z,3.32
2018-03-04T00:36:49.492Z,3.37
2018-03-04T00:38:45.937Z,3.24
2018-03-04T00:39:45.397Z,3.26
2018-03-04T00:41:41.334Z,3.26
2018-03-04T00:42:41.859Z,3.23
2018-03-04T00:44:37.207Z,3.24
2018-03-04T00:45:37.224Z,3.26
2018-03-04T00:47:33.146Z,3.20
2018-03-04T00:48:33.137Z,3.29
2018-03-04T00:50:29.592Z,3.19
2018-03-04T00:51:29.062Z,3.26
2018-03-04T00:53:25.011Z,3.29
2018-03-04T00:54:26.427Z,3.24
2018-03-04T00:56:20.962Z,3.24
2018-03-04T00:57:20.886Z,3.32
2018-03-04T00:59:16.822Z,3.24
2018-03-04T01:00:16.805Z,3.26
2018-03-04T01:02:12.747Z,3.09
2018-03-04T01:03:12.745Z,3.26
2018-03-04T01:05:10.124Z,3.26
2018-03-04T01:06:08.656Z,3.14
2018-03-04T01:08:04.616Z,3.20
2018-03-04T01:09:04.533Z,3.11
2018-03-04T01:11:00.535Z,3.17
2018-03-04T01:12:01.487Z,3.13
2018-03-04T01:13:56.976Z,3.14
2018-03-04T01:14:56.963Z,3.14
2018-03-04T01:16:52.349Z,3.16
2018-03-04T01:17:52.340Z,3.24
2018-03-04T01:19:48.296Z,3.19
2018-03-04T01:20:48.273Z,3.16
2018-03-04T01:22:44.211Z,3.11
2018-03-04T01:23:44.189Z,3.16
2018-03-04T01:25:40.638Z,3.13
2018-03-04T01:26:40.116Z,3.16
2018-03-04T01:28:36.018Z,3.13
2018-03-04T01:29:36.594Z,3.17
2018-03-04T01:31:31.961Z,3.19
2018-03-04T01:32:32.445Z,3.13
2018-03-04T01:34:28.378Z,3.05
2018-03-04T01:35:28.397Z,3.02
2018-03-04T01:37:24.287Z,3.02
2018-03-04T01:38:23.765Z,3.06
2018-03-04T01:40:19.678Z,3.14
2018-03-04T01:41:19.680Z,3.14
2018-03-04T01:43:15.622Z,3.14
2018-03-04T01:44:15.613Z,3.17
2018-03-04T01:46:12.058Z,3.11
2018-03-04T01:47:12.060Z,3.19
2018-03-04T01:49:07.562Z,3.16
2018-03-04T01:50:07.426Z,3.17
2018-03-04T01:52:03.393Z,3.16
2018-03-04T01:53:03.875Z,3.13
2018-03-04T01:55:00.271Z,3.26
2018-03-04T01:55:59.783Z,3.27
2018-03-04T01:57:55.217Z,3.23
2018-03-04T01:58:55.708Z,3.32
2018-03-04T02:00:52.141Z,3.29
2018-03-04T02:01:51.638Z,3.24
2018-03-04T02:03:49.014Z,3.26
2018-03-04T02:04:49.015Z,3.27
2018-03-04T02:06:44.982Z,3.17
2018-03-04T02:07:44.940Z,3.34
2018-03-04T02:09:40.899Z,3.29
2018-03-04T02:10:40.873Z,3.21
2018-03-04T02:12:36.800Z,3.32
2018-03-04T02:13:36.789Z,3.42
2018-03-04T02:15:33.227Z,3.39
2018-03-04T02:16:32.704Z,3.45
2018-03-04T02:18:28.613Z,3.45
2018-03-04T02:19:28.589Z,3.34
2018-03-04T02:21:24.517Z,3.26
2018-03-04T02:22:24.511Z,3.24
2018-03-04T02:24:20.467Z,3.35
2018-03-04T02:25:20.421Z,3.32
2018-03-04T02:27:16.355Z,3.27
2018-03-04T02:28:16.330Z,3.32
2018-03-04T02:30:12.273Z,3.39
2018-03-04T02:31:12.781Z,3.37
2018-03-04T02:33:08.174Z,3.40
2018-03-04T02:34:08.164Z,3.37
2018-03-04T02:36:04.084Z,3.39
2018-03-04T02:37:04.628Z,3.43
2018-03-04T02:39:00.049Z,3.42
2018-03-04T02:40:00.532Z,3.43
2018-03-04T02:41:55.889Z,3.35
2018-03-04T02:42:56.412Z,3.34
2018-03-04T02:44:52.336Z,3.45
2018-03-04T02:45:52.369Z,3.49
2018-03-04T02:47:47.789Z,3.43
2018-03-04T02:48:48.265Z,3.48
2018-03-04T02:50:43.680Z,3.54
2018-03-04T02:51:43.673Z,3.51
2018-03-04T02:53:51.304Z,3.54
2018-03-04T02:54:51.284Z,3.54
2018-03-04T02:56:47.727Z,3.48
2018-03-04T02:57:47.734Z,3.46
2018-03-04T02:59:43.144Z,3.53
2018-03-04T03:00:43.140Z,3.42
2018-03-04T03:02:39.081Z,3.45
2018-03-04T03:03:39.554Z,3.46
2018-03-04T03:05:35.467Z,3.42
2018-03-04T03:06:34.957Z,3.39
2018-03-04T03:08:30.874Z,3.37
2018-03-04T03:09:31.398Z,3.42
2018-03-04T03:11:27.290Z,3.46
2018-03-04T03:12:27.292Z,3.49
2018-03-04T03:14:22.711Z,3.51
2018-03-04T03:15:22.666Z,3.49
2018-03-04T03:17:18.577Z,3.48
2018-03-04T03:18:18.580Z,3.53
2018-03-04T03:20:15.533Z,3.53
2018-03-04T03:21:14.509Z,3.54
2018-03-04T03:23:10.450Z,3.54
2018-03-04T03:24:10.450Z,3.53
2018-03-04T03:26:06.362Z,3.53
2018-03-04T03:27:06.360Z,3.57
2018-03-04T03:29:02.814Z,3.57
2018-03-04T03:30:02.236Z,3.56
2018-03-04T03:31:58.183Z,3.57
2018-03-04T03:32:58.680Z,3.60
2018-03-04T03:34:54.110Z,3.64
2018-03-04T03:35:54.084Z,3.63
2018-03-04T03:37:49.998Z,3.61
2018-03-04T03:38:49.996Z,3.60
2018-03-04T03:40:46.459Z,3.54
2018-03-04T03:41:45.936Z,3.56
2018-03-04T03:43:42.872Z,3.53
2018-03-04T03:44:41.844Z,3.57
2018-03-04T03:46:37.775Z,3.57
2018-03-04T03:47:37.783Z,3.56
2018-03-04T03:49:34.207Z,3.58
2018-03-04T03:50:33.702Z,3.64
2018-03-04T03:52:29.614Z,3.51
2018-03-04T03:53:29.612Z,3.53
2018-03-04T03:55:25.570Z,3.54
2018-03-04T03:56:25.562Z,3.56
2018-03-04T03:58:21.446Z,3.56
2018-03-04T03:59:21.445Z,3.56
2018-03-04T04:01:17.365Z,3.56
2018-03-04T04:02:17.373Z,3.60
2018-03-04T04:04:14.315Z,3.57
2018-03-04T04:05:13.290Z,3.64
2018-03-04T04:07:09.263Z,3.58
2018-03-04T04:09:25.211Z,3.71
2018-03-04T04:10:25.174Z,3.64
2018-03-04T04:12:21.117Z,3.74
2018-03-04T04:13:21.086Z,3.69
2018-03-04T04:15:17.054Z,3.69
2018-03-04T04:16:17.526Z,3.78
2018-03-04T04:18:12.913Z,3.76
2018-03-04T04:19:12.905Z,3.72
2018-03-04T04:21:08.828Z,3.64
2018-03-04T04:22:08.855Z,3.72
2018-03-04T04:24:04.280Z,3.72
2018-03-04T04:25:03.786Z,3.74
2018-03-04T04:26:59.166Z,3.72
2018-03-04T04:27:59.168Z,3.72
2018-03-04T04:29:55.096Z,3.74
2018-03-04T04:30:55.086Z,3.69
2018-03-04T04:32:51.522Z,3.69
2018-03-04T04:33:50.998Z,3.78
2018-03-04T04:35:47.935Z,3.79
2018-03-04T04:36:47.453Z,3.81
2018-03-04T04:38:42.846Z,3.84
2018-03-04T04:39:42.873Z,3.84
2018-03-04T04:41:40.276Z,3.85
2018-03-04T04:42:38.751Z,3.82
2018-03-04T04:44:34.664Z,3.74
2018-03-04T04:45:34.667Z,3.78
2018-03-04T04:47:30.592Z,3.81
2018-03-04T04:48:30.573Z,3.78
2018-03-04T04:50:26.505Z,3.75
2018-03-04T04:51:26.488Z,3.76
2018-03-04T04:53:22.452Z,3.85
2018-03-04T04:54:22.407Z,3.81
2018-03-04T04:56:18.345Z,3.85
2018-03-04T04:57:18.323Z,3.89
2018-03-04T04:59:14.256Z,3.85
2018-03-04T05:00:14.244Z,3.76
2018-03-04T05:02:10.211Z,3.76
2018-03-04T05:03:10.182Z,3.81
2018-03-04T05:05:06.137Z,3.71
2018-03-04T05:06:06.122Z,3.74
2018-03-04T05:08:02.058Z,3.63
2018-03-04T05:09:02.064Z,3.76
2018-03-04T05:10:58.032Z,3.64
2018-03-04T05:11:58.936Z,3.61
2018-03-04T05:13:53.907Z,3.58
2018-03-04T05:14:53.915Z,3.57
2018-03-04T05:16:50.367Z,3.45
2018-03-04T05:17:49.825Z,3.42
2018-03-04T05:19:45.788Z,3.34
2018-03-04T05:20:45.738Z,3.30
2018-03-04T05:22:42.174Z,3.29
2018-03-04T05:23:41.686Z,3.23
2018-03-04T05:25:38.621Z,3.26
2018-03-04T05:26:39.113Z,3.16
2018-03-04T05:28:33.549Z,3.16
2018-03-04T05:29:33.465Z,3.13
2018-03-04T05:31:29.422Z,3.06
2018-03-04T05:32:29.369Z,3.02
2018-03-04T05:34:25.341Z,3.06
2018-03-04T05:35:25.292Z,2.99
2018-03-04T05:37:21.256Z,3.01
2018-03-04T05:38:21.202Z,2.93
2018-03-04T05:40:17.656Z,2.99
2018-03-04T05:41:17.141Z,2.85
2018-03-04T05:43:13.088Z,2.90
2018-03-04T05:44:13.042Z,2.91
2018-03-04T05:46:09.009Z,2.83
2018-03-04T05:47:08.978Z,2.87
2018-03-04T05:49:05.426Z,2.83
2018-03-04T05:50:05.416Z,2.77
2018-03-04T05:52:00.872Z,2.77
2018-03-04T05:53:00.813Z,2.78
2018-03-04T05:54:56.763Z,2.73
2018-03-04T05:55:56.727Z,2.73
2018-03-04T05:57:52.687Z,2.76
2018-03-04T05:58:52.640Z,2.62
2018-03-04T06:00:49.098Z,2.77
2018-03-04T06:01:48.548Z,2.66
2018-03-04T06:03:44.519Z,2.76
2018-03-04T06:04:44.475Z,2.78
2018-03-04T06:06:40.921Z,2.69
2018-03-04T06:07:40.393Z,2.59
2018-03-04T06:09:36.342Z,2.65
2018-03-04T06:10:36.311Z,2.60
2018-03-04T06:12:32.245Z,2.67
2018-03-04T06:13:32.752Z,2.69
2018-03-04T06:15:28.145Z,2.72
2018-03-04T06:16:28.147Z,2.62
2018-03-04T06:18:24.112Z,2.62
2018-03-04T06:19:24.086Z,2.67
2018-03-04T06:21:20.050Z,2.73
2018-03-04T06:22:19.999Z,2.78
2018-03-04T06:24:16.957Z,2.80
2018-03-04T06:25:16.474Z,2.73
2018-03-04T06:27:11.887Z,2.73
2018-03-04T06:28:11.852Z,2.70
2018-03-04T06:30:09.302Z,2.67
2018-03-04T06:31:07.766Z,2.76
2018-03-04T06:33:03.678Z,2.69
2018-03-04T06:34:03.680Z,2.77
2018-03-04T06:35:59.616Z,2.83
2018-03-04T06:36:59.590Z,2.85
2018-03-04T06:38:55.473Z,2.83
2018-03-04T06:39:55.477Z,2.83
2018-03-04T06:41:51.432Z,2.90
2018-03-04T06:42:51.420Z,2.88
2018-03-04T06:44:47.385Z,2.88
2018-03-04T06:45:47.864Z,2.96
2018-03-04T06:47:44.270Z,2.98
2018-03-04T06:48:43.248Z,2.93
2018-03-04T06:50:39.168Z,3.02
2018-03-04T06:51:39.138Z,3.11
2018-03-04T06:53:35.595Z,3.19
2018-03-04T06:54:35.061Z,3.11
2018-03-04T06:56:31.007Z,3.14
2018-03-04T06:57:30.992Z,3.24
2018-03-04T06:59:26.940Z,3.24
2018-03-04T07:00:26.954Z,3.27
2018-03-04T07:02:22.877Z,3.14
2018-03-04T07:03:22.868Z,3.27
2018-03-04T07:05:18.791Z,3.26
2018-03-04T07:06:18.781Z,3.35
2018-03-04T07:08:14.739Z,3.43
2018-03-04T07:09:14.671Z,3.37
2018-03-04T07:11:10.642Z,3.45
2018-03-04T07:12:10.579Z,3.42
2018-03-04T07:14:06.532Z,3.45
2018-03-04T07:15:06.489Z,3.46
2018-03-04T07:17:03.956Z,3.57
2018-03-04T07:18:02.929Z,3.54
2018-03-04T07:19:59.841Z,3.57
2018-03-04T07:20:58.316Z,3.64
2018-03-04T07:22:54.260Z,3.53
2018-03-04T07:23:54.241Z,3.58
2018-03-04T07:25:50.712Z,3.69
2018-03-04T07:26:50.159Z,3.74
2018-03-04T07:28:46.604Z,3.81
2018-03-04T07:29:46.604Z,3.84
2018-03-04T07:31:42.021Z,3.90
2018-03-04T07:32:42.985Z,3.90
2018-03-04T07:34:36.433Z,3.93
2018-03-04T07:35:36.432Z,4.00
2018-03-04T07:37:32.347Z,4.00
2018-03-04T07:38:32.349Z,4.04
2018-03-04T07:40:28.296Z,4.12
2018-03-04T07:41:28.270Z,4.11
2018-03-04T07:43:24.211Z,4.15
2018-03-04T07:44:24.192Z,4.10
2018-03-04T07:46:20.100Z,4.14
2018-03-04T07:47:20.128Z,4.26
2018-03-04T07:49:16.064Z,4.21
2018-03-04T07:50:16.031Z,4.36
2018-03-04T07:52:11.962Z,4.38
2018-03-04T07:53:11.944Z,4.46
2018-03-04T07:55:07.878Z,4.47
2018-03-04T07:56:07.868Z,4.47
2018-03-04T07:58:04.333Z,4.61
2018-03-04T07:59:04.307Z,4.65
2018-03-04T08:00:59.689Z,4.68
2018-03-04T08:02:00.207Z,4.66
2018-03-04T08:03:55.632Z,4.87
2018-03-04T08:04:55.613Z,4.88
2018-03-04T08:06:52.541Z,4.98
2018-03-04T08:07:52.037Z,5.06
2018-03-04T08:09:48.481Z,5.08
2018-03-04T08:10:47.480Z,5.08
2018-03-04T08:12:43.416Z,5.13
2018-03-04T08:13:43.391Z,5.15
2018-03-04T08:15:39.341Z,5.28
2018-03-04T08:16:39.323Z,5.28
2018-03-04T08:18:35.283Z,5.36
2018-03-04T08:19:35.763Z,5.36
2018-03-04T08:21:31.167Z,5.44
2018-03-04T08:22:31.679Z,5.51
2018-03-04T08:24:27.586Z,5.34
2018-03-04T08:25:27.076Z,5.36
2018-03-04T08:27:23.033Z,5.36
2018-03-04T08:28:22.985Z,5.37
2018-03-04T08:30:18.946Z,5.37
2018-03-04T08:31:19.448Z,5.34
2018-03-04T08:33:16.371Z,5.36
2018-03-04T08:34:15.698Z,5.42
2018-03-04T08:36:11.627Z,5.48
2018-03-04T08:37:11.615Z,5.52
2018-03-04T08:39:09.074Z,5.57
2018-03-04T08:40:07.517Z,5.62
2018-03-04T08:42:03.453Z,5.62
2018-03-04T08:43:03.436Z,5.63
2018-03-04T08:44:59.900Z,5.73
2018-03-04T08:45:59.383Z,5.85
2018-03-04T08:47:55.300Z,6.03
2018-03-04T08:48:55.291Z,5.99
2018-03-04T08:50:51.235Z,6.05
2018-03-04T08:51:51.223Z,6.02
2018-03-04T08:53:48.178Z,6.03
2018-03-04T08:54:47.172Z,6.06
2018-03-04T08:56:43.593Z,6.00
2018-03-04T08:57:43.106Z,5.85
2018-03-04T08:59:40.450Z,6.06
2018-03-04T09:00:39.005Z,6.07
2018-03-04T09:02:34.961Z,6.07
2018-03-04T09:03:34.935Z,6.03
2018-03-04T09:05:31.389Z,5.95
2018-03-04T09:06:30.913Z,6.06
2018-03-04T09:08:26.820Z,6.09
2018-03-04T09:09:26.776Z,6.05
2018-03-04T09:11:22.735Z,6.13
2018-03-04T09:12:22.729Z,6.20
2018-03-04T09:14:19.163Z,6.14
2018-03-04T09:15:18.642Z,6.25
2018-03-04T09:17:15.126Z,6.29
2018-03-04T09:18:14.564Z,6.34
2018-03-04T09:20:11.453Z,6.34
2018-03-04T09:21:11.008Z,6.44
2018-03-04T09:23:06.449Z,6.33
2018-03-04T09:24:06.954Z,6.43
2018-03-04T09:26:02.864Z,6.40
2018-03-04T09:27:02.367Z,6.42
2018-03-04T09:28:58.260Z,6.51
2018-03-04T09:29:58.814Z,6.34
2018-03-04T09:31:54.209Z,6.37
2018-03-04T09:32:54.197Z,6.37
2018-03-04T09:34:48.647Z,6.31
2018-03-04T09:35:48.599Z,6.42
2018-03-04T09:37:44.560Z,6.54
2018-03-04T09:38:44.526Z,6.54
2018-03-04T09:40:40.496Z,6.62
2018-03-04T09:41:40.457Z,6.57
2018-03-04T09:43:36.400Z,6.75
2018-03-04T09:44:36.916Z,6.73
2018-03-04T09:46:32.371Z,6.86
2018-03-04T09:47:32.309Z,6.78
2018-03-04T09:49:28.259Z,6.67
2018-03-04T09:50:28.266Z,6.79
2018-03-04T09:52:26.202Z,6.82
2018-03-04T09:53:25.196Z,6.79
2018-03-04T09:55:20.162Z,6.80
2018-03-04T09:56:20.157Z,6.82
2018-03-04T09:58:16.096Z,6.83
2018-03-04T09:59:16.031Z,6.85
2018-03-04T10:01:11.968Z,7.00
2018-03-04T10:02:12.530Z,7.15
2018-03-04T10:04:07.883Z,7.27
2018-03-04T10:05:07.901Z,7.15
2018-03-04T10:07:02.833Z,6.98
2018-03-04T10:08:02.855Z,6.88
2018-03-04T10:09:58.749Z,6.75
2018-03-04T10:10:58.224Z,6.70
2018-03-04T10:12:52.674Z,6.73
2018-03-04T10:13:52.645Z,6.65
2018-03-04T10:15:49.535Z,6.57
2018-03-04T10:16:48.582Z,6.64
2018-03-04T10:18:44.487Z,6.76
2018-03-04T10:19:44.483Z,6.88
2018-03-04T10:21:40.444Z,7.09
2018-03-04T10:22:40.401Z,7.11
2018-03-04T10:24:36.389Z,7.29
2018-03-04T10:25:36.886Z,7.48
2018-03-04T10:27:32.298Z,7.55
2018-03-04T10:28:32.272Z,7.73
2018-03-04T10:30:29.224Z,8.04
2018-03-04T10:31:28.200Z,8.28
2018-03-04T10:33:24.137Z,8.39
2018-03-04T10:34:24.138Z,8.49
2018-03-04T10:36:20.595Z,8.57
2018-03-04T10:37:20.710Z,8.61
2018-03-04T10:39:17.054Z,8.53
2018-03-04T10:40:16.528Z,8.58
2018-03-04T10:42:12.266Z,8.50
2018-03-04T10:43:12.257Z,8.44
2018-03-04T10:45:06.702Z,8.52
2018-03-04T10:46:05.820Z,8.61
2018-03-04T10:48:04.820Z,8.61
2018-03-04T10:50:56.847Z,8.64
2018-03-04T10:51:54.257Z,8.49
2018-03-04T10:53:50.062Z,8.67
2018-03-04T10:54:49.557Z,8.68
2018-03-04T10:56:46.500Z,8.61
2018-03-04T10:57:45.489Z,8.52
2018-03-04T10:59:41.945Z,8.49
2018-03-04T11:00:41.436Z,8.44
2018-03-04T11:02:35.861Z,8.40
2018-03-04T11:03:35.853Z,8.46
2018-03-04T11:05:30.809Z,8.29
2018-03-04T11:06:30.281Z,8.34
2018-03-04T11:08:27.737Z,8.32
2018-03-04T11:09:26.738Z,8.32
2018-03-04T11:11:22.657Z,8.46
2018-03-04T11:12:22.120Z,8.46
2018-03-04T11:14:18.060Z,8.54
2018-03-04T11:15:18.057Z,8.60
2018-03-04T11:17:14.511Z,8.76
2018-03-04T11:18:13.969Z,8.86
2018-03-04T11:20:08.923Z,9.03
2018-03-04T11:21:08.404Z,9.05
2018-03-04T11:23:03.852Z,9.09
2018-03-04T11:24:04.353Z,9.14
2018-03-04T11:25:56.805Z,9.16
2018-03-04T11:26:56.792Z,9.08
2018-03-04T11:28:50.752Z,9.08
2018-03-04T11:29:50.691Z,9.03
2018-03-04T11:31:45.150Z,9.03
2018-03-04T11:32:45.632Z,9.08
2018-03-04T11:34:41.571Z,9.17
2018-03-04T11:35:42.068Z,9.16
2018-03-04T11:37:37.005Z,9.34
2018-03-04T11:38:37.006Z,9.47
2018-03-04T11:40:32.970Z,9.30
2018-03-04T11:41:33.463Z,9.26
2018-03-04T11:43:26.371Z,9.32
2018-03-04T11:44:27.873Z,9.20
2018-03-04T11:46:20.843Z,9.04
2018-03-04T11:47:20.806Z,9.19
2018-03-04T11:49:17.241Z,9.17
2018-03-04T11:50:17.247Z,9.16
2018-03-04T11:52:12.680Z,9.32
2018-03-04T11:53:12.674Z,9.35
2018-03-04T11:55:08.581Z,9.30
2018-03-04T11:56:08.589Z,9.29
2018-03-04T11:58:05.550Z,9.44
2018-03-04T11:59:04.509Z,9.26
2018-03-04T12:01:00.453Z,9.29
2018-03-04T12:02:00.444Z,9.30
2018-03-04T12:03:56.407Z,9.24
2018-03-04T12:04:56.383Z,9.24
2018-03-04T12:06:51.339Z,9.32
2018-03-04T12:07:50.837Z,9.30
2018-03-04T12:09:46.356Z,9.37
2018-03-04T12:10:45.291Z,9.47
2018-03-04T12:12:41.751Z,9.44
2018-03-04T12:13:41.741Z,9.42
2018-03-04T12:15:37.167Z,9.35
2018-03-04T12:16:37.167Z,9.37
2018-03-04T12:18:33.121Z,9.29
2018-03-04T12:19:33.098Z,9.30
2018-03-04T12:21:29.081Z,9.45
2018-03-04T12:22:29.547Z,9.44
2018-03-04T12:24:25.003Z,9.30
2018-03-04T12:25:25.528Z,9.44
2018-03-04T12:27:21.942Z,9.45
2018-03-04T12:28:21.941Z,9.45
2018-03-04T12:30:16.915Z,9.45
2018-03-04T12:31:16.887Z,9.48
2018-03-04T12:33:12.826Z,9.42
2018-03-04T12:34:12.833Z,9.53
2018-03-04T12:36:08.752Z,9.52
2018-03-04T12:38:24.218Z,9.60
2018-03-04T12:39:23.697Z,9.63
2018-03-04T12:41:20.110Z,9.59
2018-03-04T12:42:19.093Z,9.55
2018-03-04T12:44:15.057Z,9.48
2018-03-04T12:45:15.541Z,9.52
2018-03-04T12:47:11.003Z,9.64
2018-03-04T12:48:11.995Z,9.70
2018-03-04T12:50:06.968Z,9.81
2018-03-04T12:51:07.475Z,9.78
2018-03-04T12:53:03.387Z,9.84
2018-03-04T12:54:02.862Z,9.78
2018-03-04T12:55:59.807Z,9.85
2018-03-04T12:56:58.824Z,9.93
2018-03-04T12:58:54.717Z,9.88
2018-03-04T12:59:54.746Z,9.92
2018-03-04T13:01:50.682Z,10.07
2018-03-04T13:02:50.658Z,10.03
2018-03-04T13:04:49.607Z,10.02
2018-03-04T13:05:49.598Z,10.08
2018-03-04T13:07:45.160Z,10.05
2018-03-04T13:08:44.624Z,10.10
2018-03-04T13:10:40.555Z,10.23
2018-03-04T13:11:40.576Z,10.17
2018-03-04T13:13:37.029Z,10.23
2018-03-04T13:14:36.476Z,10.23
2018-03-04T13:16:32.471Z,10.20
2018-03-04T13:17:32.418Z,10.21
2018-03-04T13:19:26.893Z,10.17
2018-03-04T13:20:26.853Z,10.20
2018-03-04T13:22:20.360Z,10.25
2018-03-04T13:23:20.291Z,10.32
2018-03-04T13:25:16.221Z,10.20
2018-03-04T13:26:16.238Z,10.31
2018-03-04T13:28:12.144Z,10.36
2018-03-04T13:29:12.132Z,10.28
2018-03-04T13:31:08.091Z,10.29
2018-03-04T13:32:08.087Z,10.28
2018-03-04T13:34:04.579Z,10.42
2018-03-04T13:35:04.544Z,10.52
2018-03-04T13:37:00.504Z,10.57
2018-03-04T13:39:54.170Z,10.79
2018-03-04T13:40:54.156Z,10.76
2018-03-04T13:42:52.269Z,10.76
2018-03-04T13:43:52.165Z,10.63
2018-03-04T13:45:47.137Z,10.77
2018-03-04T13:46:46.645Z,10.84
2018-03-04T13:48:44.109Z,10.94
2018-03-04T13:49:44.094Z,10.97
2018-03-04T13:51:40.514Z,11.20
2018-03-04T13:52:39.514Z,11.15
2018-03-04T13:54:37.474Z,11.27
2018-03-04T13:55:35.975Z,11.30
2018-03-04T13:57:32.420Z,11.38
2018-03-04T13:58:31.429Z,11.42
2018-03-04T14:00:29.399Z,11.52
2018-03-04T14:01:29.386Z,11.51
2018-03-04T14:03:25.402Z,11.53
2018-03-04T14:04:25.319Z,11.61
2018-03-04T14:06:21.238Z,11.60
2018-03-04T14:07:22.773Z,11.63
2018-03-04T14:09:19.157Z,11.64
2018-03-04T14:10:19.176Z,11.67
2018-03-04T14:12:17.228Z,11.78
2018-03-04T14:13:18.115Z,11.71
2018-03-04T14:15:15.689Z,11.75
2018-03-04T14:16:15.310Z,11.78
2018-03-04T14:18:13.274Z,11.81
2018-03-04T14:19:14.767Z,11.71
2018-03-04T14:21:11.673Z,11.75
2018-03-04T14:22:11.143Z,11.70
2018-03-04T14:24:09.273Z,11.64
2018-03-04T14:25:10.099Z,11.70
2018-03-04T14:27:07.298Z,11.71
2018-03-04T14:28:08.182Z,11.75
2018-03-04T14:30:03.754Z,11.85
2018-03-04T14:31:04.235Z,11.86
2018-03-04T14:33:02.748Z,11.78
2018-03-04T14:34:01.713Z,11.86
2018-03-04T14:36:00.138Z,11.88
2018-03-04T14:36:59.645Z,11.88
2018-03-04T14:38:57.595Z,11.84
2018-03-04T14:39:57.557Z,11.79
2018-03-04T14:41:57.989Z,11.86
2018-03-04T14:42:58.473Z,11.95
2018-03-04T14:44:55.954Z,11.82
2018-03-04T14:45:55.419Z,11.86
2018-03-04T14:47:54.860Z,11.76
2018-03-04T14:48:55.399Z,11.78
2018-03-04T14:50:51.551Z,11.81
2018-03-04T14:51:51.922Z,11.81
2018-03-04T14:53:49.882Z,11.89
2018-03-04T14:54:48.379Z,11.88
2018-03-04T14:56:43.371Z,12.01
2018-03-04T14:57:43.359Z,12.01
2018-03-04T14:59:39.340Z,11.91
2018-03-04T15:00:39.340Z,11.85
2018-03-04T15:02:38.286Z,11.86
2018-03-04T15:03:37.302Z,11.79
2018-03-04T15:05:35.771Z,11.82
2018-03-04T15:06:35.423Z,11.82
2018-03-04T15:08:33.740Z,11.84
2018-03-04T15:09:33.205Z,11.76
2018-03-04T15:11:31.141Z,11.88
2018-03-04T15:12:31.171Z,11.84
2018-03-04T15:14:30.104Z,11.85
2018-03-04T15:15:29.668Z,11.89
2018-03-04T15:17:27.588Z,11.86
2018-03-04T15:18:27.588Z,11.84
2018-03-04T15:20:27.002Z,11.78
2018-03-04T15:21:25.005Z,11.81
2018-03-04T15:23:23.946Z,11.73
2018-03-04T15:24:23.442Z,11.70
2018-03-04T15:26:21.461Z,11.68
2018-03-04T15:27:20.993Z,11.60
2018-03-04T15:29:19.934Z,11.48
2018-03-04T15:30:19.025Z,11.51
2018-03-04T15:32:15.917Z,11.56
2018-03-04T15:33:15.487Z,11.51
2018-03-04T15:35:11.989Z,11.52
2018-03-04T15:36:10.925Z,11.53
2018-03-04T15:38:09.905Z,11.48
2018-03-04T15:39:09.386Z,11.41
2018-03-04T15:41:08.289Z,11.43
2018-03-04T15:42:07.789Z,11.46
2018-03-04T15:44:04.899Z,11.43
2018-03-04T15:45:04.838Z,11.35
2018-03-04T15:47:02.811Z,11.34
2018-03-04T15:48:02.814Z,11.33
2018-03-04T15:50:00.787Z,11.20
2018-03-04T15:51:00.769Z,11.18
2018-03-04T15:52:59.736Z,11.16
2018-03-04T15:53:58.655Z,11.15
2018-03-04T15:55:57.633Z,11.15
2018-03-04T15:56:57.627Z,11.09
2018-03-04T15:58:54.637Z,11.06
2018-03-04T15:59:54.661Z,11.09
2018-03-04T16:01:52.609Z,11.02
2018-03-04T16:02:52.594Z,10.91
2018-03-04T16:04:52.550Z,11.00
2018-03-04T16:05:51.152Z,10.97
2018-03-04T16:07:49.678Z,10.92
2018-03-04T16:08:48.122Z,10.91
2018-03-04T16:10:46.066Z,10.73
2018-03-04T16:11:45.042Z,10.73
2018-03-04T16:13:46.028Z,10.61
2018-03-04T16:14:45.541Z,10.61
2018-03-04T16:16:51.914Z,10.57
2018-03-04T16:17:46.049Z,10.52
2018-03-04T16:19:45.443Z,10.46
2018-03-04T16:20:44.044Z,10.44
2018-03-04T16:22:42.519Z,10.51
2018-03-04T16:23:43.998Z,10.38
2018-03-04T16:25:40.047Z,10.42
2018-03-04T16:26:40.045Z,10.35
2018-03-04T16:28:38.126Z,10.31
2018-03-04T16:29:38.089Z,10.28
2018-03-04T16:31:37.579Z,10.26
2018-03-04T16:32:36.162Z,10.32
2018-03-04T16:34:36.576Z,10.25
2018-03-04T16:35:36.629Z,10.18
2018-03-04T16:37:35.053Z,10.18
2018-03-04T16:38:35.036Z,10.17
2018-03-04T16:40:32.673Z,10.21
2018-03-04T16:41:32.607Z,10.33
2018-03-04T16:43:33.113Z,10.17
2018-03-04T16:44:33.064Z,10.17
2018-03-04T16:46:33.535Z,10.21
2018-03-04T16:47:33.999Z,10.05
2018-03-04T16:49:34.060Z,10.05
2018-03-04T16:50:34.441Z,10.05
2018-03-04T16:52:34.487Z,10.03
2018-03-04T16:53:34.394Z,9.99
2018-03-04T16:55:34.811Z,10.00
2018-03-04T16:56:35.304Z,10.03
2018-03-04T16:58:35.202Z,9.99
2018-03-04T16:59:35.186Z,9.99
2018-03-04T17:01:35.145Z,9.93
2018-03-04T17:02:33.713Z,9.95
2018-03-04T17:04:29.072Z,9.95
2018-03-04T17:05:29.192Z,9.88
2018-03-04T17:07:27.105Z,9.80
2018-03-04T17:08:27.122Z,9.78
2018-03-04T17:10:25.586Z,9.75
2018-03-04T17:11:25.593Z,9.63
2018-03-04T17:13:20.996Z,9.47
2018-03-04T17:14:21.001Z,9.47
2018-03-04T17:16:17.516Z,9.30
2018-03-04T17:17:17.465Z,9.26
2018-03-04T17:19:12.887Z,9.29
2018-03-04T17:20:12.866Z,9.27
2018-03-04T17:22:09.320Z,9.32
2018-03-04T17:23:08.859Z,9.37
2018-03-04T17:25:04.802Z,9.34
2018-03-04T17:26:04.748Z,9.30
2018-03-04T17:28:05.204Z,9.26
2018-03-04T17:29:05.207Z,9.38
2018-03-04T17:31:03.225Z,9.35
2018-03-04T17:32:03.682Z,9.35
2018-03-04T17:34:02.108Z,9.38
2018-03-04T17:35:01.265Z,9.34
2018-03-04T17:37:02.274Z,9.26
2018-03-04T17:38:01.698Z,9.26
2018-03-04T17:39:58.635Z,9.32
2018-03-04T17:40:59.140Z,9.34
2018-03-04T17:42:58.619Z,9.35
2018-03-04T17:43:56.561Z,9.35
2018-03-04T17:45:56.021Z,9.34
2018-03-04T17:46:55.525Z,9.20
2018-03-04T17:48:54.564Z,9.21
2018-03-04T17:49:53.568Z,9.26
2018-03-04T17:51:51.195Z,9.23
2018-03-04T17:52:50.585Z,9.19
2018-03-04T17:54:50.046Z,9.30
2018-03-04T17:55:49.585Z,9.26
2018-03-04T17:57:48.510Z,9.32
2018-03-04T17:58:47.585Z,9.30
2018-03-04T18:00:44.624Z,9.29
2018-03-04T18:01:44.692Z,9.30
2018-03-04T18:03:43.570Z,9.19
2018-03-04T18:04:42.532Z,9.19
2018-03-04T18:06:41.494Z,9.19
2018-03-04T18:07:40.478Z,9.17
2018-03-04T18:09:38.403Z,9.16
2018-03-04T18:10:38.441Z,9.09
2018-03-04T18:12:34.392Z,9.24
2018-03-04T18:13:34.367Z,9.11
2018-03-04T18:15:32.344Z,9.11
2018-03-04T18:16:32.814Z,9.05
2018-03-04T18:18:30.735Z,9.24
2018-03-04T18:19:30.177Z,9.16
2018-03-04T18:21:26.630Z,9.26
2018-03-04T18:22:27.128Z,9.24
2018-03-04T18:24:26.615Z,9.17
2018-03-04T18:25:26.570Z,9.16
2018-03-04T18:27:21.517Z,9.11
2018-03-04T18:28:20.983Z,9.14
2018-03-04T18:30:16.941Z,9.60
2018-03-04T18:31:17.446Z,9.62
2018-03-04T18:33:12.939Z,9.64
2018-03-04T18:34:12.856Z,9.66
2018-03-04T18:36:07.812Z,10.18
2018-03-04T18:37:07.283Z,10.15
2018-03-04T18:39:02.238Z,10.31
2018-03-04T18:40:01.664Z,10.28
2018-03-04T18:41:57.600Z,9.99
2018-03-04T18:42:58.131Z,9.82
2018-03-04T18:44:53.537Z,9.82
2018-03-04T18:45:54.043Z,9.74
2018-03-04T18:47:48.476Z,9.81
2018-03-04T18:48:48.480Z,9.98
2018-03-04T18:50:44.442Z,9.88
2018-03-04T18:51:43.892Z,9.81
2018-03-04T18:53:40.835Z,9.70
2018-03-04T18:54:39.818Z,9.67
2018-03-04T18:56:36.773Z,9.84
2018-03-04T18:57:36.275Z,9.78
2018-03-04T18:59:33.716Z,9.89
2018-03-04T19:00:31.715Z,10.02
2018-03-04T19:02:27.623Z,10.08
2018-03-04T19:03:27.636Z,9.93
2018-03-04T19:05:23.597Z,9.88
2018-03-04T19:06:24.088Z,9.82
2018-03-04T19:08:19.480Z,9.75
2018-03-04T19:09:19.481Z,9.67
2018-03-04T19:11:15.416Z,9.59
2018-03-04T19:12:15.423Z,9.50
2018-03-04T19:14:11.336Z,9.82
2018-03-04T19:15:11.354Z,9.90
2018-03-04T19:17:07.334Z,10.02
2018-03-04T19:18:07.279Z,9.90
2018-03-04T19:20:05.743Z,9.81
2018-03-04T19:21:05.229Z,9.70
2018-03-04T19:23:06.165Z,9.53
2018-03-04T19:24:05.662Z,9.42
2018-03-04T19:26:06.229Z,9.35
2018-03-04T19:27:06.604Z,9.27
2018-03-04T19:29:06.566Z,9.16